Welcome to Northern Hawkes Bay. New Zealand.
PWS Header
      nz Flag



Hit Counter


W3C Valid W3C Valid logo


    Wairoa

Select any of the Stations below to visit their websites.










Historic Data from Weather Underground
Select the location of interest below. Wairoa is the default. Please have patience, this Data is slow to load in.
Northern Hawkes Bay Historical Data
Daily Summary for April 7, 2017 Units:  English    Metric   Both
« Previous Day
Next Day »
Daily Weekly Monthly Yearly Custom
  High: Low: Average:
Temperature: 66.9 °F 52.7 °F 58.3 °F
Dew Point: 54.9 °F 45.1 °F 50.7 °F
Humidity: 98% 57% 77%
Wind Speed: 12.1mph 0mph 4.5mph
Wind Gust: 20.6mph - -
Wind- - SSW
Pressure: 30.3 in 29.8 in -
Precipitation: 0.01 in    
Historical Graphs
 
 
Tabular Data for April 7, 2017
Time Temperature Dew Point Pressure Wind Wind Speed Wind Gust Humidity Rainfall Rate (Hourly) solar
00:03 55.2 °F 48.6 °F 29.8 in Calm   0.7 mph 78% 0 in 0 W/m2
00:09 55.6 °F 48.6 °F 29.8 in Calm   0.7 mph 77% 0 in 0 W/m2
00:15 55.4 °F 48.4 °F 29.8 in Calm     77% 0 in 0 W/m2
00:21 55 °F 48.4 °F 29.8 in Calm     78% 0 in 0 W/m2
00:27 54.9 °F 48.6 °F 29.8 in Calm     79% 0 in 0 W/m2
00:33 54.7 °F 48.4 °F 29.8 in Calm     79% 0 in 0 W/m2
00:39 54.5 °F 48 °F 29.8 in Calm     79% 0 in 0 W/m2
00:45 54.7 °F 48.6 °F 29.8 in Calm     80% 0 in 0 W/m2
00:51 54.1 °F 48.4 °F 29.8 in Calm     81% 0 in 0 W/m2
00:57 54 °F 48.6 °F 29.8 in Calm     82% 0 in 0 W/m2
01:03 53.4 °F 48.4 °F 29.8 in Calm     83% 0 in 0 W/m2
01:09 53.4 °F 48.9 °F 29.8 in Calm     85% 0 in 0 W/m2
01:15 53.4 °F 49.3 °F 29.8 in Calm     86% 0 in 0 W/m2
01:21 53.6 °F 49.3 °F 29.8 in Calm     85% 0 in 0 W/m2
01:27 53.2 °F 48.9 °F 29.8 in Calm     85% 0 in 0 W/m2
01:33 52.9 °F 48.7 °F 29.8 in Calm     86% 0 in 0 W/m2
01:39 53.1 °F 49.3 °F 29.8 in Calm     87% 0 in 0 W/m2
01:45 53.2 °F 49.5 °F 29.8 in Calm     87% 0 in 0 W/m2
01:51 53.8 °F 49.6 °F 29.8 in Calm   1.6 mph 86% 0 in 0 W/m2
01:57 54 °F 49.6 °F 29.8 in Calm   4.5 mph 85% 0 in 0 W/m2
02:03 54.3 °F 49.8 °F 29.8 in Calm   4.5 mph 85% 0 in 0 W/m2
02:09 54.5 °F 50.2 °F 29.8 in Calm     85% 0 in 0 W/m2
02:15 54.5 °F 50.2 °F 29.8 in Calm     85% 0 in 0 W/m2
02:21 54.5 °F 50.4 °F 29.8 in Calm     86% 0 in 0 W/m2
02:27 54.5 °F 50.4 °F 29.8 in Calm     86% 0 in 0 W/m2
02:33 54.5 °F 50.4 °F 29.8 in Calm     86% 0 in 0 W/m2
02:40 54.3 °F 50.2 °F 29.8 in Calm     86% 0 in 0 W/m2
02:45 54.1 °F 50.2 °F 29.8 in Calm     86% 0 in 0 W/m2
02:51 54 °F 50.2 °F 29.8 in Calm     87% 0 in 0 W/m2
02:57 53.8 °F 50.4 °F 29.8 in Calm   2.2 mph 88% 0 in 0 W/m2
03:03 53.4 °F 50.5 °F 29.8 in Calm   2.2 mph 90% 0 in 0 W/m2
03:09 53.2 °F 50.4 °F 29.8 in Calm     90% 0 in 0 W/m2
03:15 52.9 °F 50.4 °F 29.8 in Calm     91% 0 in 0 W/m2
03:21 52.9 °F 50.5 °F 29.9 in Calm     92% 0 in 0 W/m2
03:27 52.9 °F 50.5 °F 29.9 in Calm     92% 0 in 0 W/m2
03:33 52.9 °F 50.9 °F 29.9 in Calm     93% 0 in 0 W/m2
03:39 52.9 °F 50.9 °F 29.9 in Calm     93% 0 in 0 W/m2
03:45 53.1 °F 51.1 °F 29.9 in Calm     93% 0 in 0 W/m2
03:51 53.1 °F 51.1 °F 29.9 in Calm     93% 0 in 0 W/m2
03:57 53.2 °F 51.6 °F 29.9 in Calm     94% 0 in 0 W/m2
04:03 53.2 °F 51.6 °F 29.9 in Calm   1.6 mph 94% 0 in 0 W/m2
04:09 53.4 °F 51.6 °F 29.9 in Calm   1.6 mph 94% 0 in 0 W/m2
04:15 54 °F 52.3 °F 29.9 in Calm   3.1 mph 94% 0 in 0 W/m2
04:21 54.1 °F 52.5 °F 29.9 in North 0.7 mph 3.1 mph 94% 0 in 0 W/m2
04:27 54 °F 52 °F 29.9 in Calm   4.5 mph 93% 0 in 0 W/m2
04:33 54 °F 52 °F 29.9 in Calm   5.4 mph 93% 0 in 0 W/m2
04:39 54.1 °F 52.2 °F 29.9 in NW 1.6 mph 6.9 mph 93% 0 in 0 W/m2
04:45 54 °F 52 °F 29.9 in Calm   6.9 mph 93% 0 in 0 W/m2
04:51 53.8 °F 51.8 °F 29.9 in Calm   4.5 mph 93% 0 in 0 W/m2
04:57 54 °F 52.3 °F 29.9 in Calm   3.8 mph 94% 0 in 0 W/m2
05:03 54.1 °F 52.5 °F 29.9 in Calm     94% 0 in 0 W/m2
05:09 54.3 °F 52.5 °F 29.9 in Calm     94% 0 in 0 W/m2
05:15 54.1 °F 52.7 °F 29.9 in Calm     95% 0 in 0 W/m2
05:21 54.5 °F 53.4 °F 29.9 in Calm   2.2 mph 96% 0 in 0 W/m2
05:27 54.3 °F 53.2 °F 29.9 in Calm   2.2 mph 96% 0 in 0 W/m2
05:33 54.9 °F 54 °F 29.9 in Calm   4.5 mph 97% 0 in 0 W/m2
05:39 54.1 °F 53.1 °F 29.9 in WNW 2.2 mph 5.4 mph 96% 0 in 0 W/m2
05:45 53.4 °F 52.3 °F 29.9 in NNW 2.2 mph 4.5 mph 96% 0 in 0 W/m2
05:51 53.2 °F 52.2 °F 29.9 in Calm   4.5 mph 96% 0 in 0 W/m2
05:57 53.1 °F 52.2 °F 29.9 in Calm   3.8 mph 97% 0 in 0 W/m2
06:03 52.9 °F 52.2 °F 29.9 in Calm   3.8 mph 97% 0 in 0 W/m2
06:09 52.9 °F 52.2 °F 29.9 in Calm   3.8 mph 97% 0 in 0 W/m2
06:15 52.9 °F 52.2 °F 29.9 in Calm   3.8 mph 97% 0 in 0 W/m2
06:21 52.7 °F 52.2 °F 29.9 in Calm   3.8 mph 98% 0 in 0 W/m2
06:33 52.7 °F 52.2 °F 29.9 in Calm     98% 0 in 1 W/m2
06:39 52.7 °F 52.2 °F 29.9 in Calm   3.1 mph 98% 0 in 4 W/m2
06:45 52.7 °F 52.2 °F 29.9 in Calm   3.1 mph 98% 0 in 8 W/m2
06:51 52.7 °F 52.2 °F 29.9 in North 0.7 mph 2.2 mph 98% 0 in 19 W/m2
06:57 52.7 °F 52.2 °F 29.9 in Calm   2.2 mph 98% 0 in 29 W/m2
07:03 52.9 °F 52.3 °F 29.9 in NNW 1.6 mph 2.2 mph 98% 0 in 28 W/m2
07:09 53.1 °F 52.5 °F 29.9 in Calm   3.1 mph 98% 0 in 20 W/m2
07:15 53.1 °F 52.5 °F 29.9 in Calm   3.1 mph 98% 0 in 23 W/m2
07:21 53.2 °F 52.7 °F 30 in Calm     98% 0 in 37 W/m2
07:27 53.6 °F 52.9 °F 29.9 in Calm     97% 0 in 54 W/m2
07:33 54 °F 53.1 °F 30 in Calm     97% 0 in 79 W/m2
07:39 54.5 °F 53.8 °F 30 in Calm     97% 0 in 63 W/m2
07:45 54.5 °F 53.8 °F 30 in Calm   2.2 mph 97% 0 in 81 W/m2
07:51 54.7 °F 54 °F 30 in Calm   3.1 mph 97% 0 in 85 W/m2
07:57 55.2 °F 54.3 °F 30 in Calm   3.1 mph 97% 0 in 67 W/m2
08:03 55.6 °F 54.9 °F 30 in SSW 5.4 mph 9.2 mph 97% 0 in 82 W/m2
08:10 56.3 °F 54.7 °F 30 in SSW 6.9 mph 9.2 mph 94% 0 in 87 W/m2
08:15 57 °F 53.4 °F 30 in SW 3.8 mph 9.8 mph 88% 0 in 77 W/m2
08:21 57.2 °F 52.7 °F 30 in SSW 3.8 mph 9.8 mph 85% 0 in 112 W/m2
08:27 57.2 °F 52.2 °F 30 in SSW 5.4 mph 10.7 mph 83% 0.01 in 145 W/m2
08:33 57.6 °F 52.2 °F 30 in SSW 4.5 mph 11.4 mph 82% 0.01 in 152 W/m2
08:37 57.9 °F 52.9 °F 30 in SSW 8.3 mph 11.4 mph 83% 0.01 in 182 W/m2
08:43 58.3 °F 52.5 °F 30 in SSW 5.4 mph 10.7 mph 81% 0.01 in 114 W/m2
08:49 58.3 °F 52.5 °F 30 in SSW 3.8 mph 9.2 mph 81% 0.01 in 138 W/m2
08:55 58.3 °F 52.2 °F 30 in SSW 7.6 mph 10.7 mph 80% 0.01 in 161 W/m2
09:01 58.5 °F 52 °F 30 in SW 3.8 mph 9.8 mph 79% 0.01 in 204 W/m2
09:07 59.2 °F 52.3 °F 30 in SW 3.8 mph 9.8 mph 78% 0.01 in 191 W/m2
09:13 59.4 °F 52.2 °F 30 in SW 5.4 mph 8.3 mph 77% 0.01 in 165 W/m2
09:19 59.4 °F 52.2 °F 30 in SW 6 mph 8.3 mph 77% 0.01 in 159 W/m2
09:25 59.2 °F 51.6 °F 30 in SW 6.9 mph 11.4 mph 76% 0.01 in 156 W/m2
09:31 59 °F 51.8 °F 30 in SW 6.9 mph 11.4 mph 77% 0 in 164 W/m2
09:37 59.4 °F 52.5 °F 30 in SW 6 mph 9.8 mph 78% 0 in 150 W/m2
09:43 59.2 °F 52 °F 30 in SW 6.9 mph 9.2 mph 77% 0 in 151 W/m2
09:49 59 °F 51.4 °F 30 in SW 4.5 mph 9.2 mph 76% 0 in 202 W/m2
10:01 60.1 °F 52.5 °F 30 in SW 5.4 mph 9.8 mph 76% 0 in 183 W/m2
10:07 61.5 °F 53.2 °F 30 in SW 5.4 mph 8.3 mph 74% 0 in 208 W/m2
10:13 61.9 °F 52.9 °F 30 in SW 5.4 mph 9.2 mph 72% 0 in 247 W/m2
10:19 61.7 °F 52.5 °F 30 in SW 3.8 mph 11.4 mph 72% 0 in 232 W/m2
10:25 61.7 °F 52.5 °F 30 in SSW 7.6 mph 12.1 mph 72% 0 in 177 W/m2
10:31 62.4 °F 53.2 °F 30 in SW 3.8 mph 12.1 mph 72% 0 in 229 W/m2
10:37 62.4 °F 52.5 °F 30 in SW 6.9 mph 11.4 mph 70% 0 in 340 W/m2
10:43 62.6 °F 52.3 °F 30.1 in SSW 6 mph 11.4 mph 69% 0 in 351 W/m2
10:49 61.5 °F 52 °F 30.1 in SSW 6.9 mph 11.4 mph 71% 0 in 139 W/m2
10:55 60.1 °F 51.8 °F 30.1 in SW 3.8 mph 11.4 mph 74% 0 in 183 W/m2
11:01 59.7 °F 51.8 °F 30.1 in SW 6 mph 11.4 mph 75% 0 in 249 W/m2
11:07 60.3 °F 52 °F 30.1 in SW 4.5 mph 9.8 mph 74% 0 in 299 W/m2
11:13 61 °F 51.4 °F 30.1 in SW 5.4 mph 12.1 mph 71% 0 in 268 W/m2
11:20 60.8 °F 51.4 °F 30.1 in SW 3.8 mph 12.1 mph 71% 0 in 560 W/m2
11:25 61.9 °F 51.6 °F 30.1 in SW 8.3 mph 9.8 mph 69% 0 in 520 W/m2
11:31 62.1 °F 51.1 °F 30.1 in SSW 7.6 mph 11.4 mph 67% 0 in 531 W/m2
11:37 62.2 °F 51.3 °F 30.1 in SSW 5.4 mph 11.4 mph 67% 0 in 536 W/m2
11:43 62.2 °F 50.4 °F 30.1 in SW 9.2 mph 10.7 mph 65% 0 in 473 W/m2
11:47 61.9 °F 50.4 °F 30.1 in SSW 5.4 mph 10.7 mph 66% 0 in 437 W/m2
11:53 62.2 °F 50.4 °F 30.1 in SSW 5.4 mph 10.7 mph 65% 0 in 533 W/m2
11:59 62.8 °F 50.9 °F 30.1 in SW 4.5 mph 9.8 mph 65% 0 in 537 W/m2
12:05 63.3 °F 51.1 °F 30.1 in SSW 3.1 mph 9.2 mph 64% 0 in 536 W/m2
12:25 63 °F 49.8 °F 30.1 in South 6 mph 11.4 mph 62% 0 in 497 W/m2
12:31 62.8 °F 50 °F 30.1 in SSW 3.8 mph 11.4 mph 63% 0 in 526 W/m2
12:37 64 °F 51.3 °F 30.1 in South 7.6 mph 11.4 mph 63% 0 in 528 W/m2
12:43 63.1 °F 51.3 °F 30.1 in South 7.6 mph 13 mph 65% 0 in 525 W/m2
12:50 63 °F 50.5 °F 30.1 in South 6 mph 13 mph 64% 0 in 518 W/m2
12:55 63.1 °F 51.3 °F 30.1 in South 4.5 mph 8.3 mph 65% 0 in 505 W/m2
13:01 64.2 °F 52.2 °F 30.1 in South 5.4 mph 8.3 mph 65% 0 in 480 W/m2
13:07 64 °F 51.3 °F 30.1 in SSW 4.5 mph 11.4 mph 63% 0 in 501 W/m2
13:13 62.8 °F 50.4 °F 30.1 in SSW 6 mph 11.4 mph 64% 0 in 485 W/m2
13:19 63.7 °F 50.9 °F 30.1 in SSW 6.9 mph 9.8 mph 63% 0 in 456 W/m2
13:25 63.5 °F 50.7 °F 30.1 in SSW 5.4 mph 9.2 mph 63% 0 in 465 W/m2
13:31 64 °F 51.3 °F 30.1 in SSW 6 mph 10.7 mph 63% 0 in 223 W/m2
13:37 63.9 °F 51.1 °F 30.1 in South 6 mph 10.7 mph 63% 0 in 467 W/m2
13:43 64.4 °F 52 °F 30.1 in SSW 6 mph 9.2 mph 64% 0 in 418 W/m2
13:49 64 °F 51.3 °F 30.1 in SSW 5.4 mph 9.8 mph 63% 0 in 402 W/m2
13:55 64.4 °F 52 °F 30.1 in SW 4.5 mph 9.8 mph 64% 0 in 368 W/m2
14:01 65.8 °F 52.5 °F 30.1 in South 3.1 mph 9.2 mph 62% 0 in 390 W/m2
14:07 66.9 °F 52.2 °F 30.1 in South 3.8 mph 8.3 mph 59% 0 in 486 W/m2
14:13 66.6 °F 51.3 °F 30.1 in South 6 mph 8.3 mph 58% 0 in 139 W/m2
14:20 64.6 °F 50.7 °F 30.1 in South 5.4 mph 9.2 mph 61% 0 in 123 W/m2
14:25 64.6 °F 51.3 °F 30.1 in South 4.5 mph 9.2 mph 62% 0 in 92 W/m2
14:31 64.8 °F 51.1 °F 30.1 in South 6.9 mph 10.7 mph 61% 0 in 88 W/m2
14:37 64 °F 50.7 °F 30.1 in South 3.8 mph 9.8 mph 62% 0 in 87 W/m2
14:43 64.8 °F 50.5 °F 30.1 in South 4.5 mph 8.3 mph 60% 0 in 89 W/m2
14:55 66 °F 52.2 °F 30.1 in SSW 6 mph 8.3 mph 61% 0 in 159 W/m2
15:01 65.3 °F 51.1 °F 30.1 in South 6 mph 9.2 mph 60% 0 in 345 W/m2
15:07 65.3 °F 51.4 °F 30.1 in South 6 mph 9.2 mph 61% 0 in 247 W/m2
15:13 64 °F 50.4 °F 30.1 in South 3.8 mph 8.3 mph 61% 0 in 173 W/m2
15:19 63.3 °F 50.5 °F 30.1 in South 3.1 mph 7.6 mph 63% 0 in 193 W/m2
15:25 63.7 °F 50.4 °F 30.1 in South 3.8 mph 6 mph 62% 0 in 121 W/m2
15:31 63.5 °F 50.7 °F 30.1 in SSW 2.2 mph 6 mph 63% 0 in 143 W/m2
15:37 65.1 °F 51.8 °F 30.1 in SSE 0.7 mph 4.5 mph 62% 0 in 342 W/m2
15:43 66.4 °F 50.7 °F 30.1 in South 4.5 mph 6 mph 57% 0 in 191 W/m2
15:49 65.5 °F 50.4 °F 30.1 in SSW 4.5 mph 7.6 mph 58% 0 in 297 W/m2
15:55 65.3 °F 50.2 °F 30.1 in SSW 5.4 mph 7.6 mph 58% 0 in 143 W/m2
16:01 63.1 °F 49.5 °F 30.1 in South 5.4 mph 7.6 mph 61% 0 in 118 W/m2
16:07 62.6 °F 49.8 °F 30.1 in South 2.2 mph 6.9 mph 63% 0 in 114 W/m2
16:13 63.3 °F 50.5 °F 30.1 in SSW 4.5 mph 7.6 mph 63% 0 in 126 W/m2
16:19 62.2 °F 49.8 °F 30.1 in South 7.6 mph 12.1 mph 64% 0 in 118 W/m2
16:25 61.5 °F 49.6 °F 30.1 in South 11.4 mph 14.5 mph 65% 0 in 139 W/m2
16:31 61 °F 49.6 °F 30.1 in SSW 6.9 mph 14.5 mph 66% 0 in 91 W/m2
16:37 60.8 °F 50.2 °F 30.1 in SSW 9.8 mph 15.2 mph 68% 0 in 96 W/m2
16:43 61.3 °F 49.8 °F 30.1 in SSW 10.7 mph 16.8 mph 66% 0 in 126 W/m2
16:50 61.5 °F 50.2 °F 30.1 in SSW 10.7 mph 16.8 mph 66% 0 in 86 W/m2
16:55 60.6 °F 49.3 °F 30.1 in South 7.6 mph 14.5 mph 66% 0 in 47 W/m2
17:01 60.4 °F 49.5 °F 30.1 in South 5.4 mph 14.5 mph 67% 0 in 43 W/m2
17:07 60.3 °F 49.6 °F 30.1 in South 6.9 mph 15.2 mph 68% 0 in 27 W/m2
17:13 60.3 °F 50.7 °F 30.1 in South 10.7 mph 15.2 mph 71% 0 in 19 W/m2
17:19 59.9 °F 50.2 °F 30.1 in SSW 9.2 mph 16.8 mph 70% 0 in 20 W/m2
17:25 59.7 °F 49.8 °F 30.1 in SSW 8.3 mph 19 mph 70% 0 in 14 W/m2
17:31 59.7 °F 50.4 °F 30.1 in SSW 8.3 mph 16.8 mph 71% 0 in 10 W/m2
17:37 59.7 °F 49.8 °F 30.1 in SSW 6 mph 13 mph 70% 0 in 8 W/m2
17:43 59.5 °F 49.5 °F 30.1 in SSW 5.4 mph 15.9 mph 69% 0 in 4 W/m2
17:49 59.7 °F 50.4 °F 30.2 in SSW 9.2 mph 15.9 mph 71% 0 in 2 W/m2
17:55 59.7 °F 49.8 °F 30.2 in SSW 8.3 mph 16.8 mph 70% 0 in 0 W/m2
18:01 59.7 °F 49.8 °F 30.2 in SSW 8.3 mph 16.8 mph 70% 0 in 0 W/m2
18:07 59.5 °F 49.8 °F 30.2 in SSW 9.2 mph 16.8 mph 70% 0 in 0 W/m2
18:13 59.4 °F 50.4 °F 30.2 in SSW 5.4 mph 15.2 mph 72% 0 in 0 W/m2
18:19 59.4 °F 49.6 °F 30.2 in SSW 12.1 mph 15.9 mph 70% 0 in 0 W/m2
18:25 59.4 °F 49.6 °F 30.2 in SSW 7.6 mph 17.4 mph 70% 0 in 0 W/m2
18:31 59.4 °F 49.3 °F 30.2 in South 7.6 mph 17.4 mph 69% 0 in 0 W/m2
18:37 59.2 °F 49.8 °F 30.2 in South 10.7 mph 15.2 mph 71% 0 in 0 W/m2
18:43 59.2 °F 49.5 °F 30.2 in South 9.8 mph 19 mph 70% 0 in 0 W/m2
18:49 59.2 °F 50.5 °F 30.2 in South 10.7 mph 19 mph 73% 0 in 0 W/m2
18:55 59.2 °F 50.5 °F 30.2 in SSW 10.7 mph 18.3 mph 73% 0 in 0 W/m2
19:01 59.2 °F 50.5 °F 30.2 in South 6.9 mph 15.2 mph 73% 0 in 0 W/m2
19:07 59 °F 50 °F 30.2 in South 7.6 mph 15.2 mph 72% 0 in 0 W/m2
19:13 59 °F 50.4 °F 30.2 in SSW 8.3 mph 15.2 mph 73% 0 in 0 W/m2
19:19 58.8 °F 50.5 °F 30.2 in SSW 12.1 mph 18.3 mph 74% 0 in 0 W/m2
19:25 58.8 °F 50.5 °F 30.2 in SSW 9.2 mph 18.3 mph 74% 0 in 0 W/m2
19:31 58.8 °F 50.2 °F 30.2 in South 9.2 mph 15.9 mph 73% 0 in 0 W/m2
19:37 58.8 °F 50.2 °F 30.2 in South 6.9 mph 17.4 mph 73% 0 in 0 W/m2
19:43 58.8 °F 49.8 °F 30.2 in South 9.8 mph 17.4 mph 72% 0 in 0 W/m2
19:49 58.8 °F 49.5 °F 30.2 in South 6 mph 20.6 mph 71% 0 in 0 W/m2
19:55 58.6 °F 49.3 °F 30.2 in South 8.3 mph 20.6 mph 71% 0 in 0 W/m2
20:01 58.6 °F 49.3 °F 30.2 in SSW 7.6 mph 16.8 mph 71% 0 in 0 W/m2
20:07 58.6 °F 48.9 °F 30.2 in South 10.7 mph 16.8 mph 70% 0 in 0 W/m2
20:13 58.6 °F 49.3 °F 30.2 in SSW 10.7 mph 15.2 mph 71% 0 in 0 W/m2
20:19 58.6 °F 48.9 °F 30.2 in SSW 7.6 mph 15.2 mph 70% 0 in 0 W/m2
20:25 58.6 °F 49.6 °F 30.2 in SSW 9.2 mph 15.2 mph 72% 0 in 0 W/m2
20:31 58.6 °F 48.9 °F 30.2 in SSW 6 mph 14.5 mph 70% 0 in 0 W/m2
20:37 58.6 °F 48.9 °F 30.2 in SSW 6 mph 13.6 mph 70% 0 in 0 W/m2
20:43 58.8 °F 49.5 °F 30.2 in South 5.4 mph 13.6 mph 71% 0 in 0 W/m2
20:49 58.6 °F 48.9 °F 30.2 in SSW 8.3 mph 13.6 mph 70% 0 in 0 W/m2
20:55 58.6 °F 49.3 °F 30.2 in SSW 6 mph 15.2 mph 71% 0 in 0 W/m2
21:01 58.6 °F 48.6 °F 30.2 in SSW 6.9 mph 13.6 mph 69% 0 in 0 W/m2
21:07 58.5 °F 49.1 °F 30.2 in SSW 6.9 mph 15.9 mph 71% 0 in 0 W/m2
21:13 58.5 °F 48.4 °F 30.2 in SW 8.3 mph 13.6 mph 69% 0 in 0 W/m2
21:19 58.5 °F 47.8 °F 30.2 in SSW 6 mph 14.5 mph 68% 0 in 0 W/m2
21:25 58.5 °F 48.4 °F 30.2 in SSW 8.3 mph 14.5 mph 69% 0 in 0 W/m2
21:31 58.5 °F 48.7 °F 30.3 in SSW 7.6 mph 14.5 mph 70% 0 in 0 W/m2
21:37 58.5 °F 48.7 °F 30.3 in SSW 9.8 mph 14.5 mph 70% 0 in 0 W/m2
21:43 58.3 °F 48.9 °F 30.3 in SSW 7.6 mph 17.4 mph 71% 0 in 0 W/m2
21:49 58.3 °F 48.2 °F 30.3 in SSW 11.4 mph 15.9 mph 69% 0 in 0 W/m2
21:55 58.3 °F 47.8 °F 30.3 in South 5.4 mph 15.9 mph 68% 0 in 0 W/m2
22:01 58.3 °F 49.3 °F 30.3 in SSW 8.3 mph 15.9 mph 72% 0 in 0 W/m2
22:07 58.3 °F 49.3 °F 30.3 in SSW 10.7 mph 15.9 mph 72% 0 in 0 W/m2
22:13 58.1 °F 48.7 °F 30.3 in SSW 12.1 mph 16.8 mph 71% 0 in 0 W/m2
22:19 58.3 °F 48.9 °F 30.3 in SSW 8.3 mph 16.8 mph 71% 0 in 0 W/m2
22:25 58.3 °F 48.9 °F 30.3 in SSW 6.9 mph 14.5 mph 71% 0 in 0 W/m2
22:31 58.5 °F 49.8 °F 30.3 in SSW 10.7 mph 15.9 mph 73% 0 in 0 W/m2
22:37 58.3 °F 50 °F 30.3 in SW 8.3 mph 15.9 mph 74% 0 in 0 W/m2
22:43 58.1 °F 48.7 °F 30.3 in WSW 11.4 mph 18.3 mph 71% 0 in 0 W/m2
22:49 57.9 °F 48.2 °F 30.3 in WSW 11.4 mph 18.3 mph 70% 0 in 0 W/m2
22:55 57.6 °F 47.5 °F 30.3 in SW 9.2 mph 16.8 mph 69% 0 in 0 W/m2
23:01 57.4 °F 47.7 °F 30.3 in SW 8.3 mph 16.8 mph 70% 0 in 0 W/m2
23:07 57.2 °F 47.8 °F 30.3 in SW 10.7 mph 16.8 mph 71% 0 in 0 W/m2
23:13 57.2 °F 46.4 °F 30.3 in SW 9.8 mph 15.9 mph 67% 0 in 0 W/m2
23:19 57.2 °F 45.7 °F 30.3 in SW 9.2 mph 14.5 mph 65% 0 in 0 W/m2
23:25 57.2 °F 45.1 °F 30.3 in SW 9.2 mph 12.1 mph 64% 0 in 0 W/m2
23:31 57.2 °F 47.8 °F 30.3 in WSW 8.3 mph 14.5 mph 71% 0 in 0 W/m2
23:37 56.7 °F 48.7 °F 30.3 in West 5.4 mph 14.5 mph 75% 0 in 0 W/m2
23:43 56.3 °F 48.7 °F 30.3 in West 6 mph 9.8 mph 76% 0 in 0 W/m2
23:49 56.1 °F 48.9 °F 30.3 in West 4.5 mph 9.8 mph 77% 0 in 0 W/m2
23:55 55.9 °F 48.7 °F 30.3 in WSW 3.8 mph 11.4 mph 77% 0 in 0 W/m2
Northern Hawkes Bay. New Zealand Historic Data
Compliments of Weather Underground - 2 mb